createdAt,value
2022-10-01T06:11:21.043Z,1.70
2022-10-01T06:12:20.952Z,2.00
2022-10-01T06:13:20.930Z,2.70
2022-10-01T06:14:20.840Z,2.40
2022-10-01T06:15:20.754Z,2.20
2022-10-01T06:16:20.712Z,2.10
2022-10-01T06:17:20.620Z,2.40
2022-10-01T06:18:20.556Z,3.60
2022-10-01T06:19:20.485Z,2.80
2022-10-01T06:20:20.425Z,2.70
2022-10-01T06:21:20.358Z,2.50
2022-10-01T06:22:20.304Z,3.10
2022-10-01T06:23:20.229Z,2.70
2022-10-01T06:24:29.762Z,3.40
2022-10-01T06:26:24.528Z,2.70
2022-10-01T06:27:24.432Z,2.60
2022-10-01T06:28:24.452Z,3.30
2022-10-01T06:29:24.322Z,2.30
2022-10-01T06:30:24.235Z,2.70
2022-10-01T06:31:24.316Z,2.80
2022-10-01T06:32:24.089Z,2.90
2022-10-01T06:33:24.036Z,2.20
2022-10-01T06:34:23.965Z,2.80
2022-10-01T06:35:23.896Z,2.40
2022-10-01T06:36:23.837Z,2.30
2022-10-01T06:37:23.772Z,2.20
2022-10-01T06:38:23.706Z,3.00
2022-10-01T06:39:23.641Z,3.00
2022-10-01T06:40:23.574Z,2.70
2022-10-01T06:41:23.508Z,2.30
2022-10-01T06:42:23.454Z,2.70
2022-10-01T06:43:23.385Z,2.60
2022-10-01T06:44:23.314Z,2.60
2022-10-01T06:45:23.252Z,2.70
2022-10-01T06:46:23.221Z,2.30
2022-10-01T06:47:23.112Z,2.00
2022-10-01T06:48:23.062Z,2.20
2022-10-01T06:49:22.988Z,2.30
2022-10-01T06:50:22.923Z,2.70
2022-10-01T06:51:22.858Z,2.50
2022-10-01T06:52:22.793Z,3.10
2022-10-01T06:53:22.724Z,3.20
2022-10-01T06:54:22.673Z,2.70
2022-10-01T06:55:22.599Z,2.10
2022-10-01T06:56:22.529Z,2.90
2022-10-01T06:57:22.473Z,2.30
2022-10-01T06:58:22.402Z,2.80
2022-10-01T06:59:22.338Z,2.90
2022-10-01T07:00:22.275Z,2.40
2022-10-01T07:01:22.263Z,2.70
2022-10-01T07:02:22.158Z,3.10
2022-10-01T07:03:22.078Z,2.40
2022-10-01T07:04:22.019Z,2.40
2022-10-01T07:05:21.950Z,2.40
2022-10-01T07:06:21.882Z,2.70
2022-10-01T07:07:21.819Z,2.40
2022-10-01T07:08:21.758Z,2.90
2022-10-01T07:09:21.686Z,2.40
2022-10-01T07:10:21.622Z,2.40
2022-10-01T07:11:21.554Z,2.40
2022-10-01T07:12:21.493Z,1.60
2022-10-01T07:13:21.426Z,2.50
2022-10-01T07:14:21.365Z,2.20
2022-10-01T07:15:21.295Z,2.60
2022-10-01T07:16:21.282Z,3.30
2022-10-01T07:17:21.175Z,2.50
2022-10-01T07:18:21.108Z,2.20
2022-10-01T07:19:21.039Z,3.20
2022-10-01T07:20:20.974Z,2.60
2022-10-01T07:21:20.910Z,2.60
2022-10-01T07:22:20.842Z,3.20
2022-10-01T07:23:20.779Z,2.80
2022-10-01T07:24:20.711Z,2.40
2022-10-01T07:25:20.646Z,3.00
2022-10-01T07:26:20.581Z,2.60
2022-10-01T07:27:20.517Z,3.30
2022-10-01T07:28:20.558Z,2.30
2022-10-01T07:29:20.402Z,2.10
2022-10-01T07:30:20.325Z,2.40
2022-10-01T07:31:20.340Z,3.10
2022-10-01T07:32:20.189Z,2.60
2022-10-01T07:33:20.130Z,2.70
2022-10-01T07:34:20.065Z,2.40
2022-10-01T07:35:19.998Z,2.60
2022-10-01T07:36:19.931Z,2.40
2022-10-01T07:37:19.885Z,2.70
2022-10-01T07:38:19.804Z,2.80
2022-10-01T07:39:19.741Z,2.60
2022-10-01T07:40:19.679Z,2.40
2022-10-01T07:41:19.610Z,2.40
2022-10-01T07:42:19.548Z,2.70
2022-10-01T07:43:19.482Z,2.70
2022-10-01T07:44:19.410Z,2.10
2022-10-01T07:45:19.351Z,2.10
2022-10-01T07:46:19.353Z,2.70
2022-10-01T07:47:19.222Z,3.10
2022-10-01T07:48:19.158Z,2.60
2022-10-01T07:49:19.088Z,2.60
2022-10-01T07:50:19.028Z,2.30
2022-10-01T07:51:18.961Z,2.70
2022-10-01T07:52:18.898Z,2.10
2022-10-01T07:53:18.834Z,2.70
2022-10-01T07:54:18.771Z,1.90
2022-10-01T07:55:18.705Z,2.40
2022-10-01T07:56:18.635Z,1.80
2022-10-01T07:57:18.578Z,2.00
2022-10-01T07:58:18.506Z,2.30
2022-10-01T07:59:18.440Z,1.80
2022-10-01T08:00:18.384Z,2.00
2022-10-01T08:01:18.368Z,2.50
2022-10-01T08:02:18.339Z,1.90
2022-10-01T08:03:18.186Z,1.90
2022-10-01T08:04:18.115Z,1.50
2022-10-01T08:05:18.057Z,1.90
2022-10-01T08:06:21.937Z,2.30
2022-10-01T08:07:17.924Z,1.80
2022-10-01T08:08:17.866Z,1.50
2022-10-01T08:09:17.794Z,1.50
2022-10-01T08:10:17.735Z,2.30
2022-10-01T08:11:17.672Z,2.00
2022-10-01T08:12:17.606Z,1.50
2022-10-01T08:13:17.541Z,1.80
2022-10-01T08:14:17.479Z,2.20
2022-10-01T08:15:17.410Z,2.10
2022-10-01T08:16:17.401Z,2.20
2022-10-01T08:17:17.285Z,1.50
2022-10-01T08:18:17.218Z,1.70
2022-10-01T08:19:17.157Z,1.50
2022-10-01T08:20:17.090Z,1.30
2022-10-01T08:21:17.020Z,1.60
2022-10-01T08:22:16.957Z,2.00
2022-10-01T08:23:16.893Z,1.60
2022-10-01T08:24:16.825Z,1.60
2022-10-01T08:25:16.765Z,1.60
2022-10-01T08:26:16.699Z,1.70
2022-10-01T08:27:16.633Z,2.10
2022-10-01T08:28:16.693Z,1.70
2022-10-01T08:29:17.215Z,1.70
2022-10-01T08:30:16.450Z,1.50
2022-10-01T08:31:16.462Z,1.60
2022-10-01T08:32:16.311Z,1.80
2022-10-01T08:33:16.250Z,2.00
2022-10-01T08:34:16.188Z,1.60
2022-10-01T08:35:16.123Z,1.60
2022-10-01T08:36:16.059Z,1.60
2022-10-01T08:37:16.000Z,1.70
2022-10-01T08:38:15.930Z,1.40
2022-10-01T08:39:15.867Z,1.50
2022-10-01T08:40:15.801Z,1.80
2022-10-01T08:41:18.287Z,1.90
2022-10-01T08:42:15.674Z,1.70
2022-10-01T08:43:15.610Z,1.50
2022-10-01T08:44:15.544Z,1.40
2022-10-01T08:45:15.477Z,1.60
2022-10-01T08:46:15.488Z,1.90
2022-10-01T08:47:15.352Z,1.60
2022-10-01T08:48:15.288Z,1.50
2022-10-01T08:49:15.221Z,1.70
2022-10-01T08:50:15.163Z,1.50
2022-10-01T08:51:15.094Z,1.30
2022-10-01T08:52:15.031Z,1.50
2022-10-01T08:53:14.965Z,1.50
2022-10-01T08:54:14.898Z,1.40
2022-10-01T08:55:14.845Z,1.40
2022-10-01T08:56:14.775Z,1.70
2022-10-01T08:57:14.712Z,1.70
2022-10-01T08:58:14.645Z,1.40
2022-10-01T08:59:14.594Z,1.80
2022-10-01T09:00:14.535Z,1.60
2022-10-01T09:01:14.521Z,1.40
2022-10-01T09:02:14.391Z,1.50
2022-10-01T09:03:14.331Z,1.50
2022-10-01T09:04:14.335Z,1.50
2022-10-01T09:05:14.228Z,1.30
2022-10-01T09:06:14.188Z,1.50
2022-10-01T09:07:14.071Z,1.60
2022-10-01T09:08:14.005Z,1.50
2022-10-01T09:09:13.942Z,1.60
2022-10-01T09:10:13.877Z,1.60
2022-10-01T09:11:13.813Z,1.50
2022-10-01T09:12:13.760Z,1.30
2022-10-01T09:13:13.679Z,1.70
2022-10-01T09:14:13.624Z,1.60
2022-10-01T09:15:13.560Z,1.30
2022-10-01T09:16:13.629Z,1.30
2022-10-01T09:17:13.431Z,1.40
2022-10-01T09:18:13.372Z,1.50
2022-10-01T09:19:13.308Z,1.50
2022-10-01T09:20:13.245Z,1.80
2022-10-01T09:21:13.190Z,1.70
2022-10-01T09:22:13.112Z,1.80
2022-10-01T09:23:13.043Z,1.40
2022-10-01T09:24:12.977Z,1.20
2022-10-01T09:25:12.938Z,1.50
2022-10-01T09:26:12.856Z,1.60
2022-10-01T09:27:12.793Z,1.70
2022-10-01T09:28:12.749Z,1.50
2022-10-01T09:29:12.666Z,1.60
2022-10-01T09:30:12.598Z,1.60
2022-10-01T09:31:12.608Z,1.30
2022-10-01T09:32:12.472Z,1.40
2022-10-01T09:33:12.408Z,1.50
2022-10-01T09:34:12.343Z,1.30
2022-10-01T09:35:12.293Z,1.60
2022-10-01T09:36:12.216Z,1.60
2022-10-01T09:37:12.149Z,1.60
2022-10-01T09:38:12.090Z,1.20
2022-10-01T09:39:12.025Z,1.70
2022-10-01T09:40:11.957Z,1.40
2022-10-01T09:41:11.896Z,1.60
2022-10-01T09:42:11.832Z,1.70
2022-10-01T09:43:11.768Z,1.70
2022-10-01T09:44:13.892Z,2.30
2022-10-01T09:45:11.644Z,1.80
2022-10-01T09:46:11.623Z,1.40
2022-10-01T09:47:11.508Z,1.50
2022-10-01T09:48:11.451Z,1.50
2022-10-01T09:49:11.384Z,1.80
2022-10-01T09:50:11.319Z,1.30
2022-10-01T09:51:11.250Z,1.40
2022-10-01T09:52:11.185Z,1.60
2022-10-01T09:53:11.123Z,1.50
2022-10-01T09:54:11.058Z,1.50
2022-10-01T09:55:10.990Z,1.40
2022-10-01T09:56:10.932Z,1.60
2022-10-01T09:57:10.867Z,1.90
2022-10-01T09:58:10.804Z,1.60
2022-10-01T09:59:10.737Z,1.80
2022-10-01T10:00:10.676Z,1.50
2022-10-01T10:01:10.610Z,1.50
2022-10-01T10:02:10.651Z,1.50
2022-10-01T10:03:10.605Z,1.80
2022-10-01T10:04:10.419Z,1.60
2022-10-01T10:05:10.352Z,1.30
2022-10-01T10:06:10.311Z,1.40
2022-10-01T10:07:10.227Z,1.60
2022-10-01T10:08:10.159Z,1.50
2022-10-01T10:09:10.095Z,1.60
2022-10-01T10:10:10.025Z,1.30
2022-10-01T10:11:09.969Z,1.50
2022-10-01T10:12:09.903Z,1.40
2022-10-01T10:13:09.839Z,1.30
2022-10-01T10:14:09.788Z,1.50
2022-10-01T10:15:09.879Z,2.70
2022-10-01T10:16:09.690Z,1.50
2022-10-01T10:17:09.580Z,1.60
2022-10-01T10:18:09.518Z,1.60
2022-10-01T10:19:09.464Z,1.40
2022-10-01T10:20:09.388Z,1.40
2022-10-01T10:21:09.320Z,1.60
2022-10-01T10:22:09.258Z,1.90
2022-10-01T10:23:09.210Z,1.40
2022-10-01T10:24:09.127Z,1.30
2022-10-01T10:25:09.065Z,1.50
2022-10-01T10:26:08.997Z,1.60
2022-10-01T10:27:08.933Z,1.60
